sensor_id;sensor_type;location;lat;lon;timestamp;pressure;altitude;pressure_sealevel;temperature;humidity
19811;BME280;10065;49.632;8.346;2022-10-03T00:01:49;101478.94;;;13.88;96.92
19811;BME280;10065;49.632;8.346;2022-10-03T00:04:30;101479.47;;;13.92;97.13
19811;BME280;10065;49.632;8.346;2022-10-03T00:07:13;101482.22;;;14.00;96.41
19811;BME280;10065;49.632;8.346;2022-10-03T00:09:54;101485.75;;;14.01;96.05
19811;BME280;10065;49.632;8.346;2022-10-03T00:12:39;101476.09;;;13.90;97.03
19811;BME280;10065;49.632;8.346;2022-10-03T00:15:17;101482.28;;;13.81;97.77
19811;BME280;10065;49.632;8.346;2022-10-03T00:17:55;101478.00;;;13.70;98.76
19811;BME280;10065;49.632;8.346;2022-10-03T00:20:47;101484.81;;;13.82;97.79
19811;BME280;10065;49.632;8.346;2022-10-03T00:23:20;101485.38;;;13.86;96.71
19811;BME280;10065;49.632;8.346;2022-10-03T00:25:58;101483.13;;;13.81;96.21
19811;BME280;10065;49.632;8.346;2022-10-03T00:29:05;101486.66;;;13.72;96.25
19811;BME280;10065;49.632;8.346;2022-10-03T00:31:42;101492.56;;;13.76;96.25
19811;BME280;10065;49.632;8.346;2022-10-03T00:34:19;101494.00;;;13.70;95.78
19811;BME280;10065;49.632;8.346;2022-10-03T00:40:18;101495.09;;;13.77;93.97
19811;BME280;10065;49.632;8.346;2022-10-03T00:43:20;101497.19;;;13.74;93.67
19811;BME280;10065;49.632;8.346;2022-10-03T00:46:15;101497.50;;;13.61;94.32
19811;BME280;10065;49.632;8.346;2022-10-03T00:49:13;101504.53;;;13.52;94.94
19811;BME280;10065;49.632;8.346;2022-10-03T00:52:02;101504.53;;;13.52;95.08
19811;BME280;10065;49.632;8.346;2022-10-03T00:54:53;101502.97;;;13.60;94.38
19811;BME280;10065;49.632;8.346;2022-10-03T00:57:48;101498.34;;;13.62;94.02
19811;BME280;10065;49.632;8.346;2022-10-03T01:00:26;101507.59;;;13.57;93.99
19811;BME280;10065;49.632;8.346;2022-10-03T01:03:11;101513.78;;;13.58;94.00
19811;BME280;10065;49.632;8.346;2022-10-03T01:05:50;101517.41;;;13.57;93.78
19811;BME280;10065;49.632;8.346;2022-10-03T01:08:36;101515.72;;;13.66;92.83
19811;BME280;10065;49.632;8.346;2022-10-03T01:11:16;101518.81;;;13.71;92.09
19811;BME280;10065;49.632;8.346;2022-10-03T01:13:59;101519.50;;;13.73;91.38
19811;BME280;10065;49.632;8.346;2022-10-03T01:16:39;101523.72;;;13.66;91.84
19811;BME280;10065;49.632;8.346;2022-10-03T01:19:26;101519.69;;;13.52;92.69
19811;BME280;10065;49.632;8.346;2022-10-03T01:22:10;101524.16;;;13.51;92.79
19811;BME280;10065;49.632;8.346;2022-10-03T01:24:50;101528.94;;;13.48;93.14
19811;BME280;10065;49.632;8.346;2022-10-03T01:27:25;101525.28;;;13.49;92.94
19811;BME280;10065;49.632;8.346;2022-10-03T01:30:02;101526.41;;;13.46;92.48
19811;BME280;10065;49.632;8.346;2022-10-03T01:32:53;101532.03;;;13.53;92.44
19811;BME280;10065;49.632;8.346;2022-10-03T01:35:30;101531.03;;;13.54;91.81
19811;BME280;10065;49.632;8.346;2022-10-03T01:38:11;101533.00;;;13.52;92.52
19811;BME280;10065;49.632;8.346;2022-10-03T01:40:46;101540.56;;;13.56;92.04
19811;BME280;10065;49.632;8.346;2022-10-03T01:43:18;101537.50;;;13.51;92.11
19811;BME280;10065;49.632;8.346;2022-10-03T01:45:56;101537.63;;;13.50;91.95
19811;BME280;10065;49.632;8.346;2022-10-03T01:48:34;101541.00;;;13.52;92.10
19811;BME280;10065;49.632;8.346;2022-10-03T01:51:09;101539.88;;;13.45;92.38
19811;BME280;10065;49.632;8.346;2022-10-03T01:53:47;101542.69;;;13.43;92.46
19811;BME280;10065;49.632;8.346;2022-10-03T01:56:20;101543.81;;;13.41;92.52
19811;BME280;10065;49.632;8.346;2022-10-03T01:58:57;101554.47;;;13.41;92.61
19811;BME280;10065;49.632;8.346;2022-10-03T02:01:37;101559.50;;;13.34;92.21
19811;BME280;10065;49.632;8.346;2022-10-03T02:04:17;101558.94;;;13.31;92.79
19811;BME280;10065;49.632;8.346;2022-10-03T02:06:52;101556.28;;;13.31;92.80
19811;BME280;10065;49.632;8.346;2022-10-03T02:09:28;101554.72;;;13.38;92.31
19811;BME280;10065;49.632;8.346;2022-10-03T02:12:07;101558.41;;;13.37;92.01
19811;BME280;10065;49.632;8.346;2022-10-03T02:14:50;101552.78;;;13.40;91.86
19811;BME280;10065;49.632;8.346;2022-10-03T02:17:25;101548.84;;;13.44;91.54
19811;BME280;10065;49.632;8.346;2022-10-03T02:20:03;101549.53;;;13.46;91.07
19811;BME280;10065;49.632;8.346;2022-10-03T02:22:37;101555.31;;;13.41;91.37
19811;BME280;10065;49.632;8.346;2022-10-03T02:25:19;101553.59;;;13.31;91.50
19811;BME280;10065;49.632;8.346;2022-10-03T02:28:14;101544.63;;;13.22;92.06
19811;BME280;10065;49.632;8.346;2022-10-03T02:31:24;101545.22;;;13.26;91.87
19811;BME280;10065;49.632;8.346;2022-10-03T02:34:16;101550.22;;;13.29;91.63
19811;BME280;10065;49.632;8.346;2022-10-03T02:37:32;101537.34;;;13.34;90.90
19811;BME280;10065;49.632;8.346;2022-10-03T02:43:21;101536.50;;;13.24;91.14
19811;BME280;10065;49.632;8.346;2022-10-03T02:46:29;101534.81;;;13.23;90.35
19811;BME280;10065;49.632;8.346;2022-10-03T02:52:21;101533.38;;;13.09;91.10
19811;BME280;10065;49.632;8.346;2022-10-03T02:55:11;101533.38;;;13.09;91.16
19811;BME280;10065;49.632;8.346;2022-10-03T02:58:08;101538.28;;;13.04;91.27
19811;BME280;10065;49.632;8.346;2022-10-03T03:01:11;101553.41;;;13.03;91.27
19811;BME280;10065;49.632;8.346;2022-10-03T03:06:53;101549.50;;;13.07;90.76
19811;BME280;10065;49.632;8.346;2022-10-03T03:09:52;101555.38;;;13.01;90.74
19811;BME280;10065;49.632;8.346;2022-10-03T03:12:46;101563.63;;;12.98;91.22
19811;BME280;10065;49.632;8.346;2022-10-03T03:16:01;101563.63;;;12.98;90.58
19811;BME280;10065;49.632;8.346;2022-10-03T03:18:41;101565.31;;;12.99;90.05
19811;BME280;10065;49.632;8.346;2022-10-03T03:21:17;101573.41;;;12.88;90.27
19811;BME280;10065;49.632;8.346;2022-10-03T03:24:09;101580.16;;;12.92;90.29
19811;BME280;10065;49.632;8.346;2022-10-03T03:27:01;101577.94;;;12.97;89.96
19811;BME280;10065;49.632;8.346;2022-10-03T03:29:39;101573.84;;;12.93;89.43
19811;BME280;10065;49.632;8.346;2022-10-03T03:32:17;101581.81;;;12.93;89.58
19811;BME280;10065;49.632;8.346;2022-10-03T03:34:55;101574.13;;;12.90;89.13
19811;BME280;10065;49.632;8.346;2022-10-03T03:37:31;101581.13;;;12.81;89.55
19811;BME280;10065;49.632;8.346;2022-10-03T03:40:24;101574.81;;;12.82;89.16
19811;BME280;10065;49.632;8.346;2022-10-03T03:43:09;101584.63;;;12.82;88.99
19811;BME280;10065;49.632;8.346;2022-10-03T03:45:47;101580.69;;;12.86;88.90
19811;BME280;10065;49.632;8.346;2022-10-03T03:48:34;101579.59;;;12.89;88.65
19811;BME280;10065;49.632;8.346;2022-10-03T03:51:16;101581.25;;;12.80;88.82
19811;BME280;10065;49.632;8.346;2022-10-03T03:54:19;101576.91;;;12.79;89.08
19811;BME280;10065;49.632;8.346;2022-10-03T03:57:06;101591.28;;;12.67;89.76
19811;BME280;10065;49.632;8.346;2022-10-03T03:59:56;101596.75;;;12.65;90.05
19811;BME280;10065;49.632;8.346;2022-10-03T04:02:36;101599.00;;;12.70;90.04
19811;BME280;10065;49.632;8.346;2022-10-03T04:05:17;101600.00;;;12.78;89.26
19811;BME280;10065;49.632;8.346;2022-10-03T04:08:03;101595.53;;;12.79;88.75
19811;BME280;10065;49.632;8.346;2022-10-03T04:10:47;101609.09;;;12.76;88.83
19811;BME280;10065;49.632;8.346;2022-10-03T04:13:28;101604.72;;;12.65;89.19
19811;BME280;10065;49.632;8.346;2022-10-03T04:16:13;101609.25;;;12.74;89.02
19811;BME280;10065;49.632;8.346;2022-10-03T04:19:13;101605.50;;;12.87;87.30
19811;BME280;10065;49.632;8.346;2022-10-03T04:21:58;101611.91;;;12.84;87.25
19811;BME280;10065;49.632;8.346;2022-10-03T04:27:31;101619.34;;;12.80;87.93
19811;BME280;10065;49.632;8.346;2022-10-03T04:30:08;101615.22;;;12.67;87.96
19811;BME280;10065;49.632;8.346;2022-10-03T04:32:51;101618.69;;;12.58;88.40
19811;BME280;10065;49.632;8.346;2022-10-03T04:35:31;101619.94;;;12.54;88.56
19811;BME280;10065;49.632;8.346;2022-10-03T04:38:09;101629.75;;;12.53;88.22
19811;BME280;10065;49.632;8.346;2022-10-03T04:40:47;101625.97;;;12.56;87.80
19811;BME280;10065;49.632;8.346;2022-10-03T04:43:24;101618.69;;;12.58;87.50
19811;BME280;10065;49.632;8.346;2022-10-03T04:46:13;101615.59;;;12.53;87.85
19811;BME280;10065;49.632;8.346;2022-10-03T04:48:48;101619.22;;;12.52;87.77
19811;BME280;10065;49.632;8.346;2022-10-03T04:51:34;101627.63;;;12.47;88.06
19811;BME280;10065;49.632;8.346;2022-10-03T04:54:15;101620.31;;;12.49;88.17
19811;BME280;10065;49.632;8.346;2022-10-03T04:56:51;101626.59;;;12.38;88.79
19811;BME280;10065;49.632;8.346;2022-10-03T04:59:28;101617.88;;;12.36;89.15
19811;BME280;10065;49.632;8.346;2022-10-03T05:02:07;101622.41;;;12.46;88.40
19811;BME280;10065;49.632;8.346;2022-10-03T05:04:42;101629.25;;;12.38;88.17
19811;BME280;10065;49.632;8.346;2022-10-03T05:07:15;101614.94;;;12.30;88.16
19811;BME280;10065;49.632;8.346;2022-10-03T05:09:51;101628.88;;;12.22;88.39
19811;BME280;10065;49.632;8.346;2022-10-03T05:12:30;101632.22;;;12.24;88.17
19811;BME280;10065;49.632;8.346;2022-10-03T05:15:13;101632.63;;;12.20;88.24
19811;BME280;10065;49.632;8.346;2022-10-03T05:17:47;101640.53;;;12.10;88.58
19811;BME280;10065;49.632;8.346;2022-10-03T05:20:27;101637.88;;;12.10;88.82
19811;BME280;10065;49.632;8.346;2022-10-03T05:23:11;101645.03;;;12.10;89.03
19811;BME280;10065;49.632;8.346;2022-10-03T05:25:53;101645.25;;;12.06;88.78
19811;BME280;10065;49.632;8.346;2022-10-03T05:28:48;101644.50;;;12.16;88.45
19811;BME280;10065;49.632;8.346;2022-10-03T05:31:28;101635.41;;;12.18;88.35
19811;BME280;10065;49.632;8.346;2022-10-03T05:34:10;101647.88;;;12.18;88.19
19811;BME280;10065;49.632;8.346;2022-10-03T05:39:41;101656.88;;;12.26;87.83
19811;BME280;10065;49.632;8.346;2022-10-03T05:42:30;101655.06;;;12.27;87.79
19811;BME280;10065;49.632;8.346;2022-10-03T05:45:03;101664.25;;;12.23;87.79
19811;BME280;10065;49.632;8.346;2022-10-03T05:47:45;101655.13;;;12.16;88.21
19811;BME280;10065;49.632;8.346;2022-10-03T05:50:34;101656.75;;;12.07;88.81
19811;BME280;10065;49.632;8.346;2022-10-03T05:53:46;101652.88;;;12.11;88.87
19811;BME280;10065;49.632;8.346;2022-10-03T05:56:31;101663.69;;;12.19;88.03
19811;BME280;10065;49.632;8.346;2022-10-03T05:59:26;101671.28;;;12.24;87.63
19811;BME280;10065;49.632;8.346;2022-10-03T06:02:27;101672.84;;;12.26;87.53
19811;BME280;10065;49.632;8.346;2022-10-03T06:05:12;101677.91;;;12.29;87.71
19811;BME280;10065;49.632;8.346;2022-10-03T06:07:56;101684.75;;;12.32;87.74
19811;BME280;10065;49.632;8.346;2022-10-03T06:10:41;101687.22;;;12.24;87.84
19811;BME280;10065;49.632;8.346;2022-10-03T06:13:15;101685.41;;;12.24;88.55
19811;BME280;10065;49.632;8.346;2022-10-03T06:15:56;101689.53;;;12.28;88.29
19811;BME280;10065;49.632;8.346;2022-10-03T06:19:02;101680.16;;;12.34;88.02
19811;BME280;10065;49.632;8.346;2022-10-03T06:30:54;101699.50;;;12.36;87.97
19811;BME280;10065;49.632;8.346;2022-10-03T06:36:51;101700.09;;;12.39;88.98
19811;BME280;10065;49.632;8.346;2022-10-03T06:45:55;101694.81;;;12.49;90.12
19811;BME280;10065;49.632;8.346;2022-10-03T06:48:55;101700.13;;;12.49;91.07
19811;BME280;10065;49.632;8.346;2022-10-03T06:51:48;101693.19;;;12.58;90.98
19811;BME280;10065;49.632;8.346;2022-10-03T06:57:54;101694.69;;;12.71;91.44
19811;BME280;10065;49.632;8.346;2022-10-03T07:00:42;101697.81;;;12.86;91.15
19811;BME280;10065;49.632;8.346;2022-10-03T07:06:23;101698.59;;;12.98;91.58
19811;BME280;10065;49.632;8.346;2022-10-03T07:12:16;101692.22;;;13.19;90.92
19811;BME280;10065;49.632;8.346;2022-10-03T07:15:23;101693.41;;;13.27;91.06
19811;BME280;10065;49.632;8.346;2022-10-03T07:21:49;101690.75;;;13.46;91.60
19811;BME280;10065;49.632;8.346;2022-10-03T07:24:33;101696.41;;;13.52;91.69
19811;BME280;10065;49.632;8.346;2022-10-03T07:27:25;101703.81;;;13.49;93.14
19811;BME280;10065;49.632;8.346;2022-10-03T07:30:08;101707.63;;;13.56;92.82
19811;BME280;10065;49.632;8.346;2022-10-03T07:33:19;101703.72;;;13.60;92.12
19811;BME280;10065;49.632;8.346;2022-10-03T07:36:21;101707.78;;;13.64;91.64
19811;BME280;10065;49.632;8.346;2022-10-03T07:42:43;101719.88;;;13.78;91.07
19811;BME280;10065;49.632;8.346;2022-10-03T07:45:33;101725.91;;;13.80;90.94
19811;BME280;10065;49.632;8.346;2022-10-03T07:51:25;101737.28;;;13.91;92.13
19811;BME280;10065;49.632;8.346;2022-10-03T07:54:23;101745.28;;;14.01;91.84
19811;BME280;10065;49.632;8.346;2022-10-03T07:57:04;101742.88;;;14.08;91.23
19811;BME280;10065;49.632;8.346;2022-10-03T07:59:59;101734.03;;;14.17;91.20
19811;BME280;10065;49.632;8.346;2022-10-03T08:02:58;101744.59;;;14.28;89.84
19811;BME280;10065;49.632;8.346;2022-10-03T08:05:45;101747.00;;;14.50;89.12
19811;BME280;10065;49.632;8.346;2022-10-03T08:08:35;101741.72;;;14.78;85.77
19811;BME280;10065;49.632;8.346;2022-10-03T08:11:32;101750.97;;;14.93;85.94
19811;BME280;10065;49.632;8.346;2022-10-03T08:14:17;101746.25;;;15.14;84.44
19811;BME280;10065;49.632;8.346;2022-10-03T08:20:03;101745.84;;;15.09;84.91
19811;BME280;10065;49.632;8.346;2022-10-03T08:22:48;101741.38;;;15.00;84.11
19811;BME280;10065;49.632;8.346;2022-10-03T08:25:39;101751.06;;;15.11;84.18
19811;BME280;10065;49.632;8.346;2022-10-03T08:28:38;101750.19;;;15.20;84.41
19811;BME280;10065;49.632;8.346;2022-10-03T08:34:48;101748.22;;;15.39;85.15
19811;BME280;10065;49.632;8.346;2022-10-03T08:37:43;101748.47;;;15.56;81.99
19811;BME280;10065;49.632;8.346;2022-10-03T08:40:49;101745.59;;;15.85;82.53
19811;BME280;10065;49.632;8.346;2022-10-03T08:43:47;101748.47;;;15.83;80.34
19811;BME280;10065;49.632;8.346;2022-10-03T08:46:36;101748.69;;;16.07;79.31
19811;BME280;10065;49.632;8.346;2022-10-03T08:49:32;101736.97;;;17.63;74.50
19811;BME280;10065;49.632;8.346;2022-10-03T08:52:11;101732.06;;;20.89;59.50
19811;BME280;10065;49.632;8.346;2022-10-03T08:55:22;101732.03;;;23.92;48.17
19811;BME280;10065;49.632;8.346;2022-10-03T08:58:16;101722.28;;;26.17;42.42
19811;BME280;10065;49.632;8.346;2022-10-03T09:01:12;101721.00;;;26.51;39.75
19811;BME280;10065;49.632;8.346;2022-10-03T09:04:11;101715.19;;;26.66;41.28
19811;BME280;10065;49.632;8.346;2022-10-03T09:06:58;101719.81;;;26.40;42.09
19811;BME280;10065;49.632;8.346;2022-10-03T09:10:07;101718.50;;;25.86;43.14
19811;BME280;10065;49.632;8.346;2022-10-03T09:12:57;101722.22;;;24.90;44.73
19811;BME280;10065;49.632;8.346;2022-10-03T09:18:49;101728.91;;;23.00;48.93
19811;BME280;10065;49.632;8.346;2022-10-03T09:21:43;101730.69;;;23.55;48.54
19811;BME280;10065;49.632;8.346;2022-10-03T09:24:39;101728.59;;;23.57;46.26
19811;BME280;10065;49.632;8.346;2022-10-03T09:27:39;101726.22;;;22.01;49.07
19811;BME280;10065;49.632;8.346;2022-10-03T09:30:19;101730.28;;;20.67;52.18
19811;BME280;10065;49.632;8.346;2022-10-03T09:36:30;101741.97;;;19.68;54.65
19811;BME280;10065;49.632;8.346;2022-10-03T09:39:16;101740.22;;;18.89;57.04
19811;BME280;10065;49.632;8.346;2022-10-03T09:42:17;101736.56;;;18.09;58.94
19811;BME280;10065;49.632;8.346;2022-10-03T09:45:25;101738.78;;;19.95;55.27
19811;BME280;10065;49.632;8.346;2022-10-03T09:48:12;101728.75;;;20.49;52.42
19811;BME280;10065;49.632;8.346;2022-10-03T09:59:38;101740.44;;;18.55;55.84
19811;BME280;10065;49.632;8.346;2022-10-03T10:02:34;101746.97;;;18.12;56.88
19811;BME280;10065;49.632;8.346;2022-10-03T10:05:37;101743.03;;;17.74;58.73
19811;BME280;10065;49.632;8.346;2022-10-03T10:11:34;101742.78;;;17.17;61.39
19811;BME280;10065;49.632;8.346;2022-10-03T10:14:21;101740.72;;;17.03;62.22
19811;BME280;10065;49.632;8.346;2022-10-03T10:17:25;101736.78;;;17.15;62.33
19811;BME280;10065;49.632;8.346;2022-10-03T10:20:18;101725.28;;;17.81;58.17
19811;BME280;10065;49.632;8.346;2022-10-03T10:23:28;101720.28;;;18.59;55.32
19811;BME280;10065;49.632;8.346;2022-10-03T10:26:36;101720.09;;;19.32;52.72
19811;BME280;10065;49.632;8.346;2022-10-03T10:29:35;101708.44;;;18.92;54.83
19811;BME280;10065;49.632;8.346;2022-10-03T10:51:13;101717.63;;;17.10;58.85
19811;BME280;10065;49.632;8.346;2022-10-03T10:57:20;101727.75;;;17.24;59.62
19811;BME280;10065;49.632;8.346;2022-10-03T11:00:22;101727.09;;;17.22;60.32
19811;BME280;10065;49.632;8.346;2022-10-03T11:18:35;101720.34;;;17.18;62.17
19811;BME280;10065;49.632;8.346;2022-10-03T11:27:52;101721.19;;;16.84;61.66
19811;BME280;10065;49.632;8.346;2022-10-03T11:31:03;101721.16;;;16.76;62.07
19811;BME280;10065;49.632;8.346;2022-10-03T11:34:10;101712.72;;;16.71;61.49
19811;BME280;10065;49.632;8.346;2022-10-03T11:37:04;101716.09;;;16.73;60.14
19811;BME280;10065;49.632;8.346;2022-10-03T11:39:43;101712.97;;;16.78;60.62
19811;BME280;10065;49.632;8.346;2022-10-03T11:42:26;101701.44;;;16.85;61.93
19811;BME280;10065;49.632;8.346;2022-10-03T11:44:59;101702.31;;;16.94;62.31
19811;BME280;10065;49.632;8.346;2022-10-03T11:47:49;101708.56;;;17.03;60.60
19811;BME280;10065;49.632;8.346;2022-10-03T11:50:31;101706.91;;;17.10;58.53
19811;BME280;10065;49.632;8.346;2022-10-03T11:53:10;101701.97;;;17.23;58.81
19811;BME280;10065;49.632;8.346;2022-10-03T11:55:45;101705.00;;;17.36;59.46
19811;BME280;10065;49.632;8.346;2022-10-03T11:58:25;101693.31;;;17.53;59.31
19811;BME280;10065;49.632;8.346;2022-10-03T12:01:22;101693.06;;;17.73;57.75
19811;BME280;10065;49.632;8.346;2022-10-03T12:03:59;101699.81;;;17.85;56.69
19811;BME280;10065;49.632;8.346;2022-10-03T12:06:56;101684.38;;;18.03;56.20
19811;BME280;10065;49.632;8.346;2022-10-03T12:09:53;101689.06;;;18.41;55.10
19811;BME280;10065;49.632;8.346;2022-10-03T12:12:31;101694.25;;;18.67;55.99
19811;BME280;10065;49.632;8.346;2022-10-03T12:15:12;101690.03;;;18.65;56.11
19811;BME280;10065;49.632;8.346;2022-10-03T12:17:48;101686.38;;;18.58;56.50
19811;BME280;10065;49.632;8.346;2022-10-03T12:20:23;101678.47;;;18.48;57.35
19811;BME280;10065;49.632;8.346;2022-10-03T12:22:58;101683.72;;;18.25;57.54
19811;BME280;10065;49.632;8.346;2022-10-03T12:25:31;101678.66;;;18.06;58.43
19811;BME280;10065;49.632;8.346;2022-10-03T12:28:09;101687.41;;;17.84;58.71
19811;BME280;10065;49.632;8.346;2022-10-03T12:30:47;101681.78;;;17.61;59.75
19811;BME280;10065;49.632;8.346;2022-10-03T12:33:39;101682.59;;;17.45;59.91
19811;BME280;10065;49.632;8.346;2022-10-03T12:36:12;101683.22;;;17.31;60.58
19811;BME280;10065;49.632;8.346;2022-10-03T12:41:56;101677.13;;;17.13;61.54
19811;BME280;10065;49.632;8.346;2022-10-03T12:44:42;101676.09;;;17.06;61.14
19811;BME280;10065;49.632;8.346;2022-10-03T12:47:24;101665.00;;;17.01;62.43
19811;BME280;10065;49.632;8.346;2022-10-03T12:50:27;101674.53;;;16.95;62.73
19811;BME280;10065;49.632;8.346;2022-10-03T12:53:21;101670.47;;;16.91;62.66
19811;BME280;10065;49.632;8.346;2022-10-03T12:56:01;101668.97;;;16.88;62.95
19811;BME280;10065;49.632;8.346;2022-10-03T12:58:44;101666.63;;;16.85;62.72
19811;BME280;10065;49.632;8.346;2022-10-03T13:01:23;101665.25;;;16.81;62.93
19811;BME280;10065;49.632;8.346;2022-10-03T13:03:54;101657.06;;;16.83;63.90
19811;BME280;10065;49.632;8.346;2022-10-03T13:06:33;101663.44;;;16.90;63.72
19811;BME280;10065;49.632;8.346;2022-10-03T13:09:33;101657.63;;;16.95;63.29
19811;BME280;10065;49.632;8.346;2022-10-03T13:12:15;101655.44;;;16.98;62.69
19811;BME280;10065;49.632;8.346;2022-10-03T13:18:17;101642.22;;;16.97;61.42
19811;BME280;10065;49.632;8.346;2022-10-03T13:20:52;101646.25;;;17.01;61.93
19811;BME280;10065;49.632;8.346;2022-10-03T13:23:31;101651.13;;;17.05;61.94
19811;BME280;10065;49.632;8.346;2022-10-03T13:26:09;101643.59;;;17.09;61.65
19811;BME280;10065;49.632;8.346;2022-10-03T13:29:05;101643.28;;;17.12;59.98
19811;BME280;10065;49.632;8.346;2022-10-03T13:31:52;101652.00;;;17.14;61.99
19811;BME280;10065;49.632;8.346;2022-10-03T13:34:24;101638.94;;;17.19;59.57
19811;BME280;10065;49.632;8.346;2022-10-03T13:36:57;101639.28;;;17.24;59.05
19811;BME280;10065;49.632;8.346;2022-10-03T13:39:39;101637.50;;;17.33;58.95
19811;BME280;10065;49.632;8.346;2022-10-03T13:42:15;101635.97;;;17.38;57.91
19811;BME280;10065;49.632;8.346;2022-10-03T13:44:49;101639.00;;;17.43;57.98
19811;BME280;10065;49.632;8.346;2022-10-03T13:47:36;101637.31;;;17.42;56.83
19811;BME280;10065;49.632;8.346;2022-10-03T13:50:14;101637.31;;;17.42;56.02
19811;BME280;10065;49.632;8.346;2022-10-03T13:52:44;101627.28;;;17.44;54.29
19811;BME280;10065;49.632;8.346;2022-10-03T13:55:21;101629.78;;;17.46;55.72
19811;BME280;10065;49.632;8.346;2022-10-03T13:58:08;101627.63;;;17.49;55.68
19811;BME280;10065;49.632;8.346;2022-10-03T14:00:46;101628.63;;;17.48;55.81
19811;BME280;10065;49.632;8.346;2022-10-03T14:03:23;101643.91;;;17.56;55.86
19811;BME280;10065;49.632;8.346;2022-10-03T14:06:00;101637.00;;;17.53;55.58
19811;BME280;10065;49.632;8.346;2022-10-03T14:11:33;101638.00;;;17.52;55.56
19811;BME280;10065;49.632;8.346;2022-10-03T14:14:26;101634.00;;;17.48;56.24
19811;BME280;10065;49.632;8.346;2022-10-03T14:17:04;101634.16;;;17.47;54.90
19811;BME280;10065;49.632;8.346;2022-10-03T14:19:45;101618.75;;;17.49;54.65
19811;BME280;10065;49.632;8.346;2022-10-03T14:22:35;101625.59;;;17.59;53.81
19811;BME280;10065;49.632;8.346;2022-10-03T14:25:18;101615.94;;;17.75;51.23
19811;BME280;10065;49.632;8.346;2022-10-03T14:27:52;101614.09;;;17.83;53.07
19811;BME280;10065;49.632;8.346;2022-10-03T14:30:22;101619.47;;;17.83;54.17
19811;BME280;10065;49.632;8.346;2022-10-03T14:33:02;101628.38;;;17.84;54.84
19811;BME280;10065;49.632;8.346;2022-10-03T14:35:40;101630.00;;;17.77;54.66
19811;BME280;10065;49.632;8.346;2022-10-03T14:41:35;101630.69;;;17.71;55.21
19811;BME280;10065;49.632;8.346;2022-10-03T14:44:07;101622.47;;;17.64;54.97
19811;BME280;10065;49.632;8.346;2022-10-03T14:46:43;101620.91;;;17.61;55.94
19811;BME280;10065;49.632;8.346;2022-10-03T14:49:18;101628.66;;;17.56;55.96
19811;BME280;10065;49.632;8.346;2022-10-03T14:52:15;101616.56;;;17.52;56.78
19811;BME280;10065;49.632;8.346;2022-10-03T14:54:49;101625.13;;;17.48;56.76
19811;BME280;10065;49.632;8.346;2022-10-03T14:57:30;101618.06;;;17.47;56.64
19811;BME280;10065;49.632;8.346;2022-10-03T15:00:24;101616.69;;;17.43;56.62
19811;BME280;10065;49.632;8.346;2022-10-03T15:02:53;101607.16;;;17.40;55.73
19811;BME280;10065;49.632;8.346;2022-10-03T15:05:33;101601.13;;;17.38;55.61
19811;BME280;10065;49.632;8.346;2022-10-03T15:08:09;101611.53;;;17.41;56.28
19811;BME280;10065;49.632;8.346;2022-10-03T15:10:42;101609.19;;;17.46;58.28
19811;BME280;10065;49.632;8.346;2022-10-03T15:13:12;101608.50;;;17.44;59.42
19811;BME280;10065;49.632;8.346;2022-10-03T15:15:45;101600.81;;;17.41;59.87
19811;BME280;10065;49.632;8.346;2022-10-03T15:18:15;101606.81;;;17.43;59.05
19811;BME280;10065;49.632;8.346;2022-10-03T15:20:45;101600.97;;;17.40;57.70
19811;BME280;10065;49.632;8.346;2022-10-03T15:23:18;101608.50;;;17.36;57.00
19811;BME280;10065;49.632;8.346;2022-10-03T15:25:50;101605.31;;;17.33;57.39
19811;BME280;10065;49.632;8.346;2022-10-03T15:28:21;101603.78;;;17.30;58.49
19811;BME280;10065;49.632;8.346;2022-10-03T15:30:53;101602.28;;;17.27;59.10
19811;BME280;10065;49.632;8.346;2022-10-03T15:33:27;101592.38;;;17.20;59.59
19811;BME280;10065;49.632;8.346;2022-10-03T15:36:10;101591.50;;;17.11;59.68
19811;BME280;10065;49.632;8.346;2022-10-03T15:38:42;101590.16;;;17.07;59.92
19811;BME280;10065;49.632;8.346;2022-10-03T15:41:14;101585.97;;;17.05;60.87
19811;BME280;10065;49.632;8.346;2022-10-03T15:43:44;101595.19;;;17.02;60.80
19811;BME280;10065;49.632;8.346;2022-10-03T15:46:26;101598.50;;;16.96;61.20
19811;BME280;10065;49.632;8.346;2022-10-03T15:48:58;101595.63;;;16.89;61.65
19811;BME280;10065;49.632;8.346;2022-10-03T15:51:28;101600.63;;;16.84;61.69
19811;BME280;10065;49.632;8.346;2022-10-03T15:53:58;101593.75;;;16.82;62.01
19811;BME280;10065;49.632;8.346;2022-10-03T15:56:32;101599.94;;;16.82;62.12
19811;BME280;10065;49.632;8.346;2022-10-03T15:59:06;101603.97;;;16.78;62.27
19811;BME280;10065;49.632;8.346;2022-10-03T16:01:36;101600.75;;;16.75;62.08
19811;BME280;10065;49.632;8.346;2022-10-03T16:04:12;101606.63;;;16.70;61.51
19811;BME280;10065;49.632;8.346;2022-10-03T16:06:45;101605.59;;;16.71;62.94
19811;BME280;10065;49.632;8.346;2022-10-03T16:09:22;101598.88;;;16.67;63.00
19811;BME280;10065;49.632;8.346;2022-10-03T16:12:02;101603.41;;;16.67;62.54
19811;BME280;10065;49.632;8.346;2022-10-03T16:14:39;101600.03;;;16.65;63.49
19811;BME280;10065;49.632;8.346;2022-10-03T16:17:14;101589.78;;;16.60;62.58
19811;BME280;10065;49.632;8.346;2022-10-03T16:19:49;101584.75;;;16.57;63.85
19811;BME280;10065;49.632;8.346;2022-10-03T16:22:22;101583.56;;;16.51;62.78
19811;BME280;10065;49.632;8.346;2022-10-03T16:25:01;101585.53;;;16.49;62.84
19811;BME280;10065;49.632;8.346;2022-10-03T16:27:37;101580.66;;;16.45;63.24
19811;BME280;10065;49.632;8.346;2022-10-03T16:30:25;101584.16;;;16.45;64.84
19811;BME280;10065;49.632;8.346;2022-10-03T16:33:13;101584.34;;;16.44;64.94
19811;BME280;10065;49.632;8.346;2022-10-03T16:35:45;101576.63;;;16.41;65.89
19811;BME280;10065;49.632;8.346;2022-10-03T16:38:20;101578.63;;;16.39;65.42